createdAt,value
2023-01-13T00:00:49.119Z,100113.88
2023-01-13T00:06:15.524Z,100105.38
2023-01-13T00:11:37.429Z,100118.91
2023-01-13T00:16:59.429Z,100118.09
2023-01-13T00:22:21.306Z,100119.03
2023-01-13T00:27:43.139Z,100106.19
2023-01-13T00:33:04.986Z,100109.53
2023-01-13T00:38:27.578Z,100108.00
2023-01-13T00:43:50.608Z,100101.88
2023-01-13T00:49:12.503Z,100088.22
2023-01-13T00:54:34.365Z,100103.59
2023-01-13T00:59:56.254Z,100109.75
2023-01-13T01:05:18.093Z,100101.16
2023-01-13T01:10:40.061Z,100093.53
2023-01-13T01:16:09.620Z,100088.66
2023-01-13T01:21:32.467Z,100075.59
2023-01-13T01:26:54.348Z,100079.16
2023-01-13T01:32:16.229Z,100066.50
2023-01-13T01:37:38.145Z,100063.13
2023-01-13T01:43:00.028Z,100057.81
2023-01-13T01:48:21.962Z,100059.44
2023-01-13T01:53:44.155Z,100037.31
2023-01-13T01:59:06.033Z,100020.44
2023-01-13T02:04:34.961Z,100027.41
2023-01-13T02:10:01.109Z,100015.31
2023-01-13T02:15:32.738Z,100013.78
2023-01-13T02:21:12.692Z,100013.69
2023-01-13T02:26:57.754Z,100005.03
2023-01-13T02:32:27.079Z,100000.66
2023-01-13T02:37:50.734Z,99999.63
2023-01-13T02:43:36.444Z,100006.47
2023-01-13T02:49:04.201Z,99994.59
2023-01-13T02:54:29.393Z,99992.16
2023-01-13T02:59:54.997Z,99997.81
2023-01-13T03:05:17.239Z,99973.06
2023-01-13T03:11:06.088Z,99982.38
2023-01-13T03:16:47.745Z,99974.81
2023-01-13T03:22:50.758Z,99980.78
2023-01-13T03:28:22.628Z,99978.22
2023-01-13T03:34:01.946Z,99971.31
2023-01-13T03:39:31.607Z,99972.78
2023-01-13T03:45:15.444Z,99970.09
2023-01-13T03:50:55.816Z,99971.13
2023-01-13T03:56:27.806Z,99961.44
2023-01-13T04:02:05.973Z,99960.59
2023-01-13T04:07:48.632Z,99963.16
2023-01-13T04:13:20.977Z,99961.38
2023-01-13T04:18:42.858Z,99966.09
2023-01-13T04:24:04.961Z,99957.53
2023-01-13T04:29:26.836Z,99955.09
2023-01-13T04:34:48.679Z,99952.22
2023-01-13T04:40:11.375Z,99946.25
2023-01-13T04:45:33.617Z,99951.22
2023-01-13T04:50:55.454Z,99946.28
2023-01-13T04:56:17.324Z,99943.78
2023-01-13T05:01:40.520Z,99953.03
2023-01-13T05:07:02.365Z,99951.38
2023-01-13T05:12:24.431Z,99948.97
2023-01-13T05:17:46.678Z,99942.06
2023-01-13T05:23:08.549Z,99945.47
2023-01-13T05:28:34.702Z,99950.63
2023-01-13T05:33:56.570Z,99938.88
2023-01-13T05:39:18.452Z,99955.00
2023-01-13T05:44:40.262Z,99949.00
2023-01-13T05:50:02.590Z,99951.59
2023-01-13T05:55:24.443Z,99957.84
2023-01-13T06:00:47.651Z,99962.25
2023-01-13T06:06:09.517Z,99971.63
2023-01-13T06:11:31.383Z,99972.53
2023-01-13T06:16:53.393Z,99976.91
2023-01-13T06:22:30.283Z,99978.53
2023-01-13T06:27:53.186Z,99974.22
2023-01-13T06:33:19.857Z,99977.66
2023-01-13T06:38:46.435Z,99966.53
2023-01-13T06:44:08.240Z,99974.53
2023-01-13T06:49:30.177Z,99973.34
2023-01-13T06:54:52.196Z,99986.97
2023-01-13T07:00:14.681Z,99980.94
2023-01-13T07:05:36.689Z,99979.34
2023-01-13T07:10:58.667Z,99981.78
2023-01-13T07:16:20.884Z,99981.00
2023-01-13T07:21:42.760Z,99964.81
2023-01-13T07:27:04.574Z,99977.38
2023-01-13T07:32:26.420Z,99975.75
2023-01-13T07:37:48.937Z,99975.50
2023-01-13T07:43:12.879Z,99978.97
2023-01-13T07:48:35.165Z,99983.13
2023-01-13T07:53:57.057Z,99981.38
2023-01-13T07:59:18.884Z,99983.00
2023-01-13T08:04:40.834Z,99982.06
2023-01-13T08:10:03.900Z,99985.19
2023-01-13T08:15:25.866Z,99981.91
2023-01-13T08:20:51.984Z,99990.97
2023-01-13T08:26:16.275Z,99990.97
2023-01-13T08:31:38.202Z,99983.22
2023-01-13T08:37:00.089Z,99985.44
2023-01-13T08:42:21.950Z,99984.41
2023-01-13T08:47:43.878Z,99980.59
2023-01-13T08:53:05.772Z,99986.47
2023-01-13T08:58:27.689Z,99987.97
2023-01-13T09:03:49.841Z,99997.19
2023-01-13T09:09:12.382Z,100000.34
2023-01-13T09:14:36.494Z,99985.94
2023-01-13T09:19:58.478Z,99977.31
2023-01-13T09:25:20.402Z,99980.63
2023-01-13T09:30:42.250Z,99981.56
2023-01-13T09:36:04.350Z,99978.25
2023-01-13T09:41:28.671Z,99972.41
2023-01-13T09:46:56.636Z,99972.53
2023-01-13T09:52:24.100Z,99972.31
2023-01-13T09:57:46.985Z,99968.59
2023-01-13T10:03:08.872Z,99961.78
2023-01-13T10:08:36.716Z,99965.88
2023-01-13T10:14:02.106Z,99949.78
2023-01-13T10:20:01.711Z,99950.38
2023-01-13T10:25:34.240Z,99938.19
2023-01-13T10:30:56.213Z,99940.19
2023-01-13T10:36:18.887Z,99941.56
2023-01-13T10:41:40.933Z,99937.09
2023-01-13T10:47:02.814Z,99935.25
2023-01-13T10:52:28.101Z,99919.34
2023-01-13T10:57:50.039Z,99919.75
2023-01-13T11:03:11.848Z,99929.03
2023-01-13T11:08:54.178Z,99921.78
2023-01-13T11:14:24.206Z,99927.44
2023-01-13T11:19:57.975Z,99913.31
2023-01-13T11:25:25.158Z,99919.72
2023-01-13T11:30:54.900Z,99912.81
2023-01-13T11:36:20.705Z,99918.47
2023-01-13T11:41:51.756Z,99911.13
2023-01-13T11:47:14.095Z,99904.19
2023-01-13T11:52:55.809Z,99903.06
2023-01-13T11:58:50.632Z,99898.59
2023-01-13T12:04:28.143Z,99895.81
2023-01-13T12:09:53.119Z,99884.88
2023-01-13T12:15:21.106Z,99883.78
2023-01-13T12:21:09.279Z,99882.44
2023-01-13T12:26:35.791Z,99877.84
2023-01-13T12:32:01.688Z,99881.50
2023-01-13T12:37:26.671Z,99895.03
2023-01-13T12:42:58.618Z,99905.41
2023-01-13T12:48:48.389Z,99892.06
2023-01-13T12:54:52.046Z,99883.03
2023-01-13T13:00:15.487Z,99895.75
2023-01-13T13:05:58.595Z,99883.53
2023-01-13T13:11:34.283Z,99874.91
2023-01-13T13:16:56.289Z,99878.56
2023-01-13T13:22:36.100Z,99876.59
2023-01-13T13:28:14.292Z,99897.69
2023-01-13T13:33:56.823Z,99894.91
2023-01-13T13:39:28.812Z,99900.59
2023-01-13T13:44:51.291Z,99901.59
2023-01-13T13:50:16.660Z,99899.13
2023-01-13T13:55:38.608Z,99903.00
2023-01-13T14:01:01.098Z,99905.63
2023-01-13T14:06:23.079Z,99895.66
2023-01-13T14:11:54.572Z,99911.88
2023-01-13T14:17:25.597Z,99896.22
2023-01-13T14:22:53.190Z,99904.19
2023-01-13T14:28:26.393Z,99917.75
2023-01-13T14:33:57.184Z,99915.13
2023-01-13T14:39:39.203Z,99911.63
2023-01-13T14:45:01.471Z,99907.47
2023-01-13T14:50:27.683Z,99918.47
2023-01-13T14:55:50.851Z,99908.19
2023-01-13T15:01:28.135Z,99905.78
2023-01-13T15:06:53.164Z,99902.25
2023-01-13T15:12:33.968Z,99909.78
2023-01-13T15:17:56.832Z,99915.03
2023-01-13T15:23:20.355Z,99901.41
2023-01-13T15:28:42.263Z,99910.78
2023-01-13T15:34:04.103Z,99899.13
2023-01-13T15:39:25.927Z,99913.38
2023-01-13T15:44:47.776Z,99913.75
2023-01-13T15:50:14.477Z,99907.25
2023-01-13T15:55:38.599Z,99908.22
2023-01-13T16:01:00.486Z,99896.44
2023-01-13T16:06:29.364Z,99905.84
2023-01-13T16:11:51.219Z,99903.53
2023-01-13T16:17:18.301Z,99923.84
2023-01-13T16:22:40.278Z,99922.97
2023-01-13T16:28:02.353Z,99919.06
2023-01-13T16:33:24.342Z,99937.63
2023-01-13T16:38:46.800Z,99936.97
2023-01-13T16:44:08.677Z,99936.13
2023-01-13T16:49:30.569Z,99937.16
2023-01-13T16:54:52.483Z,99912.50
2023-01-13T17:00:14.942Z,99929.38
2023-01-13T17:05:43.582Z,99924.91
2023-01-13T17:11:05.437Z,99925.53
2023-01-13T17:16:27.304Z,99926.50
2023-01-13T17:21:49.635Z,99937.63
2023-01-13T17:27:11.818Z,99942.66
2023-01-13T17:32:33.726Z,99924.81
2023-01-13T17:37:55.681Z,99931.56
2023-01-13T17:43:17.522Z,99952.97
2023-01-13T17:48:39.495Z,99933.69
2023-01-13T17:54:01.340Z,99950.63
2023-01-13T17:59:23.285Z,99946.56
2023-01-13T18:04:45.149Z,99962.16
2023-01-13T18:10:07.393Z,99959.84
2023-01-13T18:15:30.231Z,99965.88
2023-01-13T18:20:52.094Z,99956.63
2023-01-13T18:26:18.945Z,99964.03
2023-01-13T18:31:40.810Z,99963.22
2023-01-13T18:37:03.519Z,99947.28
2023-01-13T18:42:25.439Z,99965.94
2023-01-13T18:47:47.353Z,99968.91
2023-01-13T18:53:09.191Z,99976.81
2023-01-13T18:58:31.028Z,99975.84
2023-01-13T19:03:57.614Z,99989.53
2023-01-13T19:09:20.796Z,99988.28
2023-01-13T19:14:42.667Z,100007.13
2023-01-13T19:20:05.083Z,99999.47
2023-01-13T19:25:26.948Z,99997.84
2023-01-13T19:30:51.588Z,100000.38
2023-01-13T19:36:13.450Z,99982.44
2023-01-13T19:41:35.256Z,100005.06
2023-01-13T19:46:57.899Z,99997.44
2023-01-13T19:52:19.843Z,100007.56
2023-01-13T19:57:41.721Z,100017.72
2023-01-13T20:03:03.752Z,100021.75
2023-01-13T20:08:25.661Z,100019.09
2023-01-13T20:13:49.072Z,100035.72
2023-01-13T20:19:10.954Z,100029.59
2023-01-13T20:24:33.838Z,100032.78
2023-01-13T20:29:55.690Z,100036.25
2023-01-13T20:35:17.782Z,100050.72
2023-01-13T20:40:39.613Z,100033.56
2023-01-13T20:46:03.699Z,100061.53
2023-01-13T20:51:25.654Z,100060.38
2023-01-13T20:56:47.720Z,100072.34
2023-01-13T21:02:15.108Z,100079.19
2023-01-13T21:07:36.954Z,100071.50
2023-01-13T21:12:58.851Z,100073.94
2023-01-13T21:18:20.832Z,100083.44
2023-01-13T21:23:44.902Z,100083.31
2023-01-13T21:29:06.785Z,100084.03
2023-01-13T21:34:28.887Z,100089.34
2023-01-13T21:39:51.052Z,100102.19
2023-01-13T21:45:12.892Z,100110.91
2023-01-13T21:50:36.382Z,100118.75
2023-01-13T21:55:58.279Z,100097.69
2023-01-13T22:01:20.415Z,100107.94
2023-01-13T22:06:42.373Z,100116.50
2023-01-13T22:12:04.460Z,100125.41
2023-01-13T22:17:27.808Z,100123.63
2023-01-13T22:22:49.996Z,100125.44
2023-01-13T22:28:11.835Z,100144.47
2023-01-13T22:33:33.673Z,100141.25
2023-01-13T22:38:56.585Z,100145.66
2023-01-13T22:44:18.872Z,100155.00
2023-01-13T22:49:40.722Z,100154.25
2023-01-13T22:55:02.923Z,100140.91
2023-01-13T23:00:24.848Z,100156.91
2023-01-13T23:05:47.042Z,100157.16
2023-01-13T23:11:11.669Z,100159.03
2023-01-13T23:16:36.918Z,100140.56
2023-01-13T23:21:58.959Z,100164.53
2023-01-13T23:27:20.799Z,100168.06
2023-01-13T23:32:42.714Z,100169.81
2023-01-13T23:38:04.689Z,100179.38
2023-01-13T23:43:26.867Z,100170.00
2023-01-13T23:48:49.240Z,100161.44
2023-01-13T23:54:11.097Z,100171.06
2023-01-13T23:59:32.954Z,100160.09
